Terminal Aerodrome Forecast
Issued by NWS Louisville, KY

Home | Current Version | Previous Version | Text Only | Print | Product List | Glossary On
Versions: 1 2 3 4 5 6 7 8 9 10 11 12 13 14 15 16
944
FTUS43 KLMK 260146 AAA
TAFLEX
TAF AMD
KLEX 260146Z 2602/2624 14007KT P6SM VCSH BKN050
     FM260600 16008KT 4SM -SHRA BKN040
     FM261300 19013KT P6SM VCSH BKN025
     FM261800 21015G23KT P6SM BKN050=

USA.gov is the U.S. government's official web portal to all federal, state and local government web resources and services.